Main page
METAR-TAF:

METAR-TAF

Airports :

Novara, Italy

Aeroporto di Cameri

latitude: 45-31N, longitude: 008-40E, elevation: 178 m

Current weather observation

The report was made 56 minutes ago, at 09:55 UTC
Wind 3 kt from the West/Northwest
Temperature 8°C
Humidity 100%
Pressure 1020 hPa
Visibility: 0700 m
Broken clouds at a height of 300 ft
Scattered clouds at a height of 4000 ft
fog

METAR: LIMN 230955Z 29003KT 0700 FG BKN003 SCT040 08/08 Q1020 RMK OVC VIS MIN 0700 RED

Time: 11:51 (10:51 UTC)

Forecast

The report was made 2 hours and 51 minutes ago, at 08:00 UTC
Forecast valid from 23 at 09 UTC to 23 at 18 UTC
Wind 4 kt from variable directions
Visibility: 3000 m
Scattered clouds at a height of 3000 ft
Broken clouds at a height of 5000 ft
mist
Temporary
from 23 at 09 UTC to 23 at 10 UTC
Visibility: 0300 m
Few clouds at a height of 300 ft
Broken clouds at a height of 4000 ft
fog

TAF: LIMN 230800Z 2309/2318 VRB04KT 3000 BR SCT030 BKN050 TEMPO 2309/2310 0300 FG FEW003 BKN040

Weather observations and forecasts of more than 4000 airports (METAR and TAF reports).

The available stations are represented by yellow and red dots on the map.

Hover mouse over dot to see the name of the station.

Then click to see weather observations and forecasts.

To change the map : click on the green buttons with a black cross to zoom in, on the green button with a dash to zoom out, or on the green arrows for adjacent maps.


METAR-TAF: